Time;durP1;ratioP1;P1;durP2;ratioP2;P2;SDS_P1;SDS_P2;PMS_P1;PMS_P2;Temp;Humidity;BMP_temperature;BMP_pressure;BME280_temperature;BME280_humidity;BME280_pressure;Samples;Min_cycle;Max_cycle;Signal;HPM_P1;HPM_P2
2021/09/10 00:00:25;;;;;;;27.73;18.95;;;14.10;90.70;;;;;;5039010;28;20044;-96
2021/09/10 00:02:51;;;;;;;25.45;15.95;;;14.10;90.80;;;;;;5017649;28;20061;-95
2021/09/10 00:05:16;;;;;;;24.40;15.55;;;14.10;90.90;;;;;;5017371;28;20107;-95
2021/09/10 00:07:42;;;;;;;24.52;16.45;;;14.00;91.00;;;;;;5017021;28;20117;-96
2021/09/10 00:10:09;;;;;;;24.25;15.57;;;14.00;91.10;;;;;;5017671;28;20436;-96
2021/09/10 00:12:35;;;;;;;27.83;15.52;;;14.00;91.10;;;;;;5017356;28;20112;-96
2021/09/10 00:15:01;;;;;;;22.02;13.88;;;14.00;91.20;;;;;;5017052;28;20128;-96
2021/09/10 00:17:27;;;;;;;22.40;15.15;;;13.90;91.30;;;;;;5017127;28;20052;-96
2021/09/10 00:19:53;;;;;;;24.27;15.35;;;13.90;91.40;;;;;;5035690;28;20029;-96
2021/09/10 00:22:19;;;;;;;28.92;17.67;;;13.90;91.40;;;;;;5018707;28;20025;-95
2021/09/10 00:24:44;;;;;;;23.85;15.25;;;13.80;91.50;;;;;;5017590;28;20030;-96
2021/09/10 00:27:10;;;;;;;28.35;15.55;;;13.80;91.60;;;;;;5034708;28;20032;-95
2021/09/10 00:29:36;;;;;;;24.42;15.52;;;13.70;91.60;;;;;;5017105;28;20026;-96
2021/09/10 00:32:02;;;;;;;25.42;16.45;;;13.70;91.70;;;;;;5017350;28;20030;-96
2021/09/10 00:34:27;;;;;;;25.85;16.83;;;13.70;91.70;;;;;;5019299;28;20546;-95
2021/09/10 00:36:53;;;;;;;23.90;14.98;;;13.70;91.80;;;;;;5020227;28;20029;-96
2021/09/10 00:39:21;;;;;;;24.08;14.88;;;13.60;91.80;;;;;;5016953;28;20385;-96
2021/09/10 00:41:47;;;;;;;21.17;14.05;;;13.60;91.90;;;;;;5017323;28;20443;-95
2021/09/10 00:44:13;;;;;;;21.80;14.25;;;13.60;92.00;;;;;;5017424;28;20111;-95
2021/09/10 00:46:39;;;;;;;20.40;13.98;;;13.60;92.00;;;;;;5035175;28;20469;-95
2021/09/10 00:49:04;;;;;;;26.38;15.82;;;13.50;92.10;;;;;;5017450;28;20059;-94
2021/09/10 00:51:30;;;;;;;25.92;17.02;;;13.50;92.20;;;;;;5020679;28;20034;-96
2021/09/10 00:53:56;;;;;;;30.35;17.27;;;13.50;92.30;;;;;;5021074;28;20046;-96
2021/09/10 00:56:22;;;;;;;26.65;16.77;;;13.50;92.30;;;;;;5047344;28;20014;-93
2021/09/10 00:58:48;;;;;;;26.05;15.98;;;13.40;92.60;;;;;;5055862;28;20075;-93
2021/09/10 01:01:14;;;;;;;27.05;16.80;;;13.40;92.40;;;;;;5037439;28;20053;-95
2021/09/10 01:03:39;;;;;;;26.33;17.35;;;13.40;92.50;;;;;;5034372;28;20025;-96
2021/09/10 01:06:05;;;;;;;30.10;18.80;;;13.40;92.50;;;;;;5034282;28;20057;-96
2021/09/10 01:08:32;;;;;;;34.53;18.75;;;13.40;92.60;;;;;;5016747;28;20025;-95
2021/09/10 01:11:00;;;;;;;30.52;17.88;;;13.40;92.60;;;;;;5016750;28;20072;-96
2021/09/10 01:13:26;;;;;;;35.22;19.20;;;13.30;92.60;;;;;;5016548;28;20030;-95
2021/09/10 01:15:53;;;;;;;32.47;21.35;;;13.30;92.70;;;;;;5034170;28;20465;-96
2021/09/10 01:18:19;;;;;;;37.45;20.65;;;13.30;92.80;;;;;;5033566;28;20029;-95
2021/09/10 01:20:48;;;;;;;36.88;20.60;;;13.30;92.90;;;;;;5016461;28;20037;-95
2021/09/10 01:23:15;;;;;;;48.05;23.05;;;13.20;92.90;;;;;;5034035;28;20036;-96
2021/09/10 01:25:41;;;;;;;39.72;21.70;;;13.20;93.00;;;;;;5033972;28;20037;-95
2021/09/10 01:28:07;;;;;;;39.42;22.40;;;13.20;93.00;;;;;;5016846;28;20369;-95
2021/09/10 01:30:34;;;;;;;41.65;22.13;;;13.20;93.00;;;;;;5017204;28;20438;-96
2021/09/10 01:33:06;;;;;;;45.22;23.77;;;13.20;93.10;;;;;;5023835;28;20030;-95
2021/09/10 01:35:32;;;;;;;39.83;22.15;;;13.20;93.10;;;;;;5027372;28;20036;-95
2021/09/10 01:37:57;;;;;;;38.25;22.65;;;13.20;93.10;;;;;;5027393;28;20045;-95
2021/09/10 01:40:25;;;;;;;33.53;19.73;;;13.10;93.10;;;;;;5022092;28;20384;-95
2021/09/10 01:42:51;;;;;;;33.92;19.20;;;13.10;93.10;;;;;;5035882;28;20033;-95
2021/09/10 01:45:17;;;;;;;35.03;19.75;;;13.10;93.20;;;;;;5016878;28;20427;-94
2021/09/10 01:47:43;;;;;;;36.45;18.85;;;13.10;93.30;;;;;;5015951;28;20034;-95
2021/09/10 01:50:12;;;;;;;24.73;15.32;;;13.10;93.30;;;;;;5033678;28;20071;-95
2021/09/10 01:52:38;;;;;;;28.98;16.02;;;13.10;93.30;;;;;;5035019;28;20148;-96
2021/09/10 01:55:06;;;;;;;29.95;19.00;;;13.10;93.30;;;;;;5022188;28;20093;-93
2021/09/10 01:57:32;;;;;;;34.28;19.77;;;13.10;93.30;;;;;;5033538;28;20093;-93
2021/09/10 01:59:58;;;;;;;30.05;17.20;;;13.00;93.30;;;;;;5035713;28;20028;-95
2021/09/10 02:02:23;;;;;;;27.95;17.77;;;13.00;93.30;;;;;;5035242;28;20026;-95
2021/09/10 02:04:49;;;;;;;30.10;16.73;;;13.00;93.40;;;;;;5041002;28;20089;-94
2021/09/10 02:07:15;;;;;;;25.73;16.20;;;13.00;93.40;;;;;;5022536;28;20025;-95
2021/09/10 02:09:41;;;;;;;30.65;17.08;;;13.00;93.40;;;;;;5037163;28;20029;-96
2021/09/10 02:12:07;;;;;;;28.05;15.32;;;13.00;93.50;;;;;;5019562;28;20030;-95
2021/09/10 02:14:34;;;;;;;25.95;15.45;;;13.00;93.50;;;;;;5019530;28;20048;-96
2021/09/10 02:17:00;;;;;;;29.73;16.05;;;13.00;93.50;;;;;;5019290;28;20128;-95
2021/09/10 02:19:26;;;;;;;27.58;15.70;;;12.90;93.60;;;;;;5018793;28;20098;-96
2021/09/10 02:21:52;;;;;;;24.10;14.48;;;12.90;93.60;;;;;;5019260;28;20045;-95
2021/09/10 02:24:18;;;;;;;25.75;15.48;;;12.90;93.60;;;;;;5036609;28;20116;-95
2021/09/10 02:26:43;;;;;;;18.08;12.55;;;12.90;93.70;;;;;;5019035;28;20423;-95
2021/09/10 02:29:09;;;;;;;25.90;15.50;;;12.80;93.60;;;;;;5018965;28;20137;-95
2021/09/10 02:31:35;;;;;;;26.13;15.27;;;12.80;93.70;;;;;;5019355;28;20036;-95
2021/09/10 02:34:01;;;;;;;24.45;15.25;;;12.80;93.80;;;;;;5036768;28;20477;-95
2021/09/10 02:36:27;;;;;;;22.42;14.25;;;12.80;93.90;;;;;;5019269;28;20083;-96
2021/09/10 02:38:53;;;;;;;25.42;15.85;;;12.70;93.90;;;;;;5018868;28;20022;-96
2021/09/10 02:41:19;;;;;;;27.40;15.98;;;12.70;93.90;;;;;;5019565;28;20026;-96
2021/09/10 02:43:45;;;;;;;24.00;15.55;;;12.70;94.00;;;;;;5022352;28;20071;-93
2021/09/10 02:46:10;;;;;;;27.20;15.45;;;12.70;94.00;;;;;;5030466;28;20033;-95
2021/09/10 02:48:36;;;;;;;26.92;15.77;;;12.70;94.00;;;;;;5023978;28;20469;-95
2021/09/10 02:51:02;;;;;;;27.90;17.88;;;12.70;94.10;;;;;;5018638;28;20029;-95
2021/09/10 02:53:28;;;;;;;29.95;18.88;;;12.60;94.10;;;;;;5018658;28;20029;-96
2021/09/10 02:55:56;;;;;;;24.38;16.17;;;12.60;94.20;;;;;;5018483;28;20065;-95
2021/09/10 02:58:22;;;;;;;27.48;15.70;;;12.60;94.20;;;;;;5022439;28;20057;-96
2021/09/10 03:00:48;;;;;;;27.77;18.92;;;12.60;94.20;;;;;;5022944;28;20072;-95
2021/09/10 03:03:14;;;;;;;32.88;21.42;;;12.60;94.30;;;;;;5027096;28;20013;-93
2021/09/10 03:05:39;;;;;;;39.95;25.05;;;12.60;94.30;;;;;;5041522;28;20013;-92
2021/09/10 03:08:05;;;;;;;39.50;24.20;;;12.50;94.30;;;;;;5041038;28;20009;-93
2021/09/10 03:10:31;;;;;;;49.33;28.23;;;12.50;94.30;;;;;;5045206;28;20025;-95
2021/09/10 03:12:56;;;;;;;41.47;26.17;;;12.50;94.40;;;;;;5018446;28;20029;-96
2021/09/10 03:15:22;;;;;;;42.60;26.33;;;12.50;94.40;;;;;;5021345;28;20029;-95
2021/09/10 03:17:48;;;;;;;41.47;27.40;;;12.40;94.50;;;;;;5018686;28;20037;-95
2021/09/10 03:20:14;;;;;;;40.75;25.55;;;12.40;94.50;;;;;;5018122;28;20112;-95
2021/09/10 03:22:39;;;;;;;40.03;23.88;;;12.40;94.60;;;;;;5018250;28;20026;-95
2021/09/10 03:25:06;;;;;;;37.40;24.52;;;12.30;94.60;;;;;;5018456;28;20041;-95
2021/09/10 03:27:35;;;;;;;42.58;26.08;;;12.40;94.60;;;;;;5018146;28;20040;-96
2021/09/10 03:30:02;;;;;;;40.30;24.15;;;12.40;94.70;;;;;;5019144;28;20030;-95
2021/09/10 03:32:27;;;;;;;42.50;25.25;;;12.40;94.80;;;;;;5018341;28;20556;-95
2021/09/10 03:34:53;;;;;;;38.80;23.17;;;12.40;94.80;;;;;;5019721;28;20076;-95
2021/09/10 03:37:19;;;;;;;39.90;22.70;;;12.40;94.80;;;;;;5019983;28;20033;-94
2021/09/10 03:39:44;;;;;;;41.05;24.95;;;12.40;94.90;;;;;;5036566;28;20025;-94
2021/09/10 03:42:10;;;;;;;47.85;27.50;;;12.40;94.90;;;;;;5018165;28;20029;-96
2021/09/10 03:44:36;;;;;;;44.33;28.73;;;12.40;94.90;;;;;;5034918;28;20412;-96
2021/09/10 03:47:05;;;;;;;45.28;26.60;;;12.40;94.90;;;;;;5017578;28;20040;-95
2021/09/10 03:49:36;;;;;;;49.17;28.17;;;12.40;94.90;;;;;;5017795;28;20353;-95
2021/09/10 03:52:02;;;;;;;45.05;24.83;;;12.40;95.00;;;;;;5020048;28;20030;-96
2021/09/10 03:54:27;;;;;;;31.02;20.25;;;12.50;95.00;;;;;;5017192;28;20059;-96
2021/09/10 03:56:53;;;;;;;34.50;18.60;;;12.50;95.00;;;;;;5034860;28;20028;-96
2021/09/10 03:59:19;;;;;;;35.80;21.02;;;12.50;94.90;;;;;;5017914;28;20079;-95
2021/09/10 04:01:45;;;;;;;31.77;20.45;;;12.60;94.90;;;;;;5022461;28;20025;-94
2021/09/10 04:04:10;;;;;;;32.30;20.58;;;12.70;95.00;;;;;;5042154;28;20111;-96
2021/09/10 04:06:36;;;;;;;33.38;19.67;;;12.70;94.90;;;;;;5025090;28;20026;-94
2021/09/10 04:09:02;;;;;;;32.58;20.98;;;12.70;94.90;;;;;;5037053;28;20033;-94
2021/09/10 04:11:27;;;;;;;34.97;20.67;;;12.80;94.80;;;;;;5038926;28;20034;-91
2021/09/10 04:13:53;;;;;;;35.53;20.55;;;12.90;94.80;;;;;;5036230;28;20026;-95
2021/09/10 04:16:19;;;;;;;38.85;22.63;;;12.90;94.70;;;;;;5017295;28;20084;-95
2021/09/10 04:18:45;;;;;;;31.92;18.95;;;13.00;94.70;;;;;;5017844;28;20026;-94
2021/09/10 04:21:10;;;;;;;32.65;19.63;;;13.10;94.60;;;;;;5017177;28;20065;-95
2021/09/10 04:23:36;;;;;;;32.80;19.30;;;13.20;94.60;;;;;;5035155;28;20082;-95
2021/09/10 04:26:02;;;;;;;32.85;18.10;;;13.30;94.50;;;;;;5016967;28;20108;-96
2021/09/10 04:28:27;;;;;;;26.25;16.00;;;13.40;94.40;;;;;;5018351;28;20028;-96
2021/09/10 04:30:53;;;;;;;24.98;15.13;;;13.40;94.40;;;;;;5017526;28;20110;-95
2021/09/10 04:33:21;;;;;;;20.75;13.95;;;13.50;94.20;;;;;;5017880;28;20036;-95
2021/09/10 04:35:47;;;;;;;25.13;14.68;;;13.60;94.10;;;;;;5019134;28;20045;-96
2021/09/10 04:38:13;;;;;;;23.40;14.20;;;13.70;94.10;;;;;;5035503;28;20029;-96
2021/09/10 04:40:39;;;;;;;20.48;13.65;;;13.80;94.00;;;;;;5017707;28;20036;-96
2021/09/10 04:43:05;;;;;;;21.92;12.55;;;13.90;93.90;;;;;;5018157;28;20029;-96
2021/09/10 04:45:31;;;;;;;21.75;13.25;;;14.00;93.80;;;;;;5017720;28;20421;-96
2021/09/10 04:47:57;;;;;;;21.90;13.85;;;14.10;93.70;;;;;;5038164;28;20429;-96
2021/09/10 04:50:23;;;;;;;21.70;14.50;;;14.20;93.70;;;;;;5020139;28;20026;-96
2021/09/10 04:52:48;;;;;;;20.23;14.18;;;14.30;93.50;;;;;;5020440;28;20061;-96
2021/09/10 04:55:14;;;;;;;21.30;12.60;;;14.40;93.40;;;;;;5023071;28;20045;-96
2021/09/10 04:57:41;;;;;;;31.77;14.48;;;14.50;93.20;;;;;;5024866;28;20147;-95
2021/09/10 05:00:07;;;;;;;22.95;14.65;;;14.60;93.10;;;;;;5021691;28;20036;-95
2021/09/10 05:02:33;;;;;;;17.83;12.35;;;14.70;93.00;;;;;;5023121;28;20029;-94
2021/09/10 05:04:59;;;;;;;17.58;12.60;;;14.80;92.80;;;;;;5040670;28;20485;-95
2021/09/10 05:07:25;;;;;;;21.25;12.55;;;15.00;92.70;;;;;;5024246;28;20036;-94
2021/09/10 05:09:51;;;;;;;16.85;11.85;;;15.10;92.60;;;;;;5027343;28;20033;-95
2021/09/10 05:12:16;;;;;;;20.35;13.02;;;15.20;92.40;;;;;;5036294;28;20403;-92
2021/09/10 05:14:43;;;;;;;18.88;13.52;;;15.40;92.20;;;;;;5038702;28;20026;-92
2021/09/10 05:17:10;;;;;;;17.92;13.57;;;15.50;92.10;;;;;;5038097;28;20037;-92
2021/09/10 05:19:36;;;;;;;23.83;14.73;;;15.60;91.90;;;;;;5033408;28;20031;-94
2021/09/10 05:22:05;;;;;;;20.98;14.77;;;15.80;91.70;;;;;;5033473;28;20006;-96
2021/09/10 05:24:33;;;;;;;18.63;13.52;;;15.90;91.50;;;;;;5052527;28;20033;-94
2021/09/10 05:27:04;;;;;;;17.45;12.05;;;16.00;91.30;;;;;;5036148;28;20005;-94
2021/09/10 05:29:30;;;;;;;18.02;13.73;;;16.20;90.90;;;;;;5036171;28;20016;-94
2021/09/10 05:31:56;;;;;;;22.25;17.02;;;16.30;90.70;;;;;;5053569;28;20034;-94
2021/09/10 05:34:25;;;;;;;25.73;16.55;;;16.50;90.60;;;;;;5036105;28;20099;-94
2021/09/10 05:37:01;;;;;;;20.70;14.55;;;16.60;90.10;;;;;;5035975;28;20538;-94
2021/09/10 05:39:30;;;;;;;25.63;16.30;;;16.80;89.80;;;;;;5020370;28;20021;-95
2021/09/10 05:41:55;;;;;;;28.17;18.90;;;16.90;89.30;;;;;;5033028;28;20026;-95
2021/09/10 05:44:21;;;;;;;33.03;22.15;;;17.00;88.40;;;;;;5028827;28;20033;-95
2021/09/10 05:46:47;;;;;;;31.08;21.35;;;17.20;86.90;;;;;;5029750;28;20025;-95
2021/09/10 05:49:13;;;;;;;32.38;20.95;;;17.40;86.50;;;;;;5022556;28;20040;-94
2021/09/10 05:51:39;;;;;;;26.60;19.20;;;17.50;85.40;;;;;;5038384;28;20021;-93
2021/09/10 05:54:05;;;;;;;28.08;18.52;;;17.70;84.40;;;;;;5020533;28;20049;-95
2021/09/10 05:56:31;;;;;;;25.40;17.85;;;17.80;83.90;;;;;;5020481;28;20153;-95
2021/09/10 05:58:56;;;;;;;22.90;16.92;;;18.00;82.80;;;;;;5020745;28;20041;-95
2021/09/10 06:01:22;;;;;;;24.38;16.73;;;18.10;82.20;;;;;;5021485;28;20100;-95
2021/09/10 06:03:48;;;;;;;22.05;15.20;;;18.20;80.90;;;;;;5041669;28;20079;-96
2021/09/10 06:06:13;;;;;;;16.45;13.93;;;18.30;80.50;;;;;;5021188;28;20052;-95
2021/09/10 06:08:39;;;;;;;16.00;13.00;;;18.40;79.90;;;;;;5023490;28;20026;-96
2021/09/10 06:11:05;;;;;;;14.70;12.18;;;18.60;79.40;;;;;;5048618;28;20033;-94
2021/09/10 06:13:31;;;;;;;16.30;13.05;;;18.70;78.00;;;;;;5026598;28;20033;-93
2021/09/10 06:15:57;;;;;;;16.42;11.65;;;18.80;76.90;;;;;;5036055;28;20026;-91
2021/09/10 06:18:23;;;;;;;14.38;11.23;;;18.90;76.60;;;;;;5037675;28;20041;-91
2021/09/10 06:20:49;;;;;;;12.65;10.63;;;19.00;75.80;;;;;;5030113;28;20061;-94
2021/09/10 06:23:14;;;;;;;13.63;10.75;;;19.10;75.20;;;;;;5037561;28;20057;-94
2021/09/10 06:25:40;;;;;;;13.98;10.70;;;19.20;74.70;;;;;;5021669;28;20060;-95
2021/09/10 06:28:08;;;;;;;14.25;9.65;;;19.30;74.20;;;;;;5020055;28;20060;-95
2021/09/10 06:30:34;;;;;;;11.63;9.88;;;19.40;74.00;;;;;;5020723;28;20484;-94
2021/09/10 06:33:00;;;;;;;13.45;10.77;;;19.50;73.30;;;;;;5021142;28;20120;-94
2021/09/10 06:35:26;;;;;;;11.15;9.45;;;19.60;72.60;;;;;;5020789;28;20091;-95
2021/09/10 06:37:52;;;;;;;12.75;9.55;;;19.60;72.40;;;;;;5021003;28;20120;-96
2021/09/10 06:40:18;;;;;;;10.98;8.73;;;19.70;72.10;;;;;;5020928;28;20529;-96
2021/09/10 06:42:44;;;;;;;11.90;8.80;;;19.80;72.20;;;;;;5020904;28;20126;-96
2021/09/10 06:45:11;;;;;;;9.25;8.07;;;19.90;71.70;;;;;;5021515;28;20389;-96
2021/09/10 06:47:36;;;;;;;12.25;8.45;;;20.00;71.60;;;;;;5022452;28;20029;-96
2021/09/10 06:50:07;;;;;;;10.65;8.48;;;20.10;71.00;;;;;;5038745;28;20026;-96
2021/09/10 06:52:33;;;;;;;12.98;8.60;;;20.20;70.50;;;;;;5021151;28;20030;-96
2021/09/10 06:54:59;;;;;;;11.45;9.05;;;20.20;70.20;;;;;;5020389;28;20045;-96
2021/09/10 06:57:27;;;;;;;10.68;7.80;;;20.30;69.80;;;;;;5024260;28;20205;-95
2021/09/10 06:59:56;;;;;;;12.25;8.05;;;20.40;69.60;;;;;;5025777;28;20039;-96
2021/09/10 07:02:22;;;;;;;10.25;8.68;;;20.50;69.60;;;;;;5021725;28;20167;-95
2021/09/10 07:04:48;;;;;;;8.68;7.07;;;20.60;68.80;;;;;;5039967;28;20049;-95
2021/09/10 07:07:13;;;;;;;10.00;7.60;;;20.80;68.70;;;;;;5039706;28;20030;-96
2021/09/10 07:09:39;;;;;;;10.38;7.95;;;20.90;68.20;;;;;;5020952;28;20026;-96
2021/09/10 07:12:07;;;;;;;9.07;7.18;;;21.00;67.20;;;;;;5022311;28;20043;-96
2021/09/10 07:14:33;;;;;;;12.25;7.32;;;21.10;67.10;;;;;;5025879;28;20033;-93
2021/09/10 07:16:59;;;;;;;8.82;7.35;;;21.20;66.60;;;;;;5034917;28;20068;-94
2021/09/10 07:19:25;;;;;;;8.77;6.35;;;21.30;66.40;;;;;;5038269;28;20049;-93
2021/09/10 07:21:51;;;;;;;10.18;6.70;;;21.40;66.20;;;;;;5037749;28;20052;-94
2021/09/10 07:24:17;;;;;;;8.70;7.38;;;21.50;66.00;;;;;;5028214;28;20105;-96
2021/09/10 07:26:43;;;;;;;7.72;6.93;;;21.70;65.50;;;;;;5033966;28;20045;-95
2021/09/10 07:29:09;;;;;;;9.02;7.22;;;21.80;65.40;;;;;;5032084;28;20117;-94
2021/09/10 07:31:35;;;;;;;8.77;7.75;;;21.90;65.40;;;;;;5048958;28;20021;-96
2021/09/10 07:34:01;;;;;;;11.63;8.82;;;22.00;65.50;;;;;;5027048;28;20483;-96
2021/09/10 07:36:26;;;;;;;8.48;7.03;;;22.10;65.00;;;;;;5021359;28;20030;-96
2021/09/10 07:38:54;;;;;;;10.20;8.40;;;22.20;64.80;;;;;;5094626;22;20109;-96
2021/09/10 07:41:20;;;;;;;10.73;8.52;;;22.20;64.80;;;;;;5060714;28;20040;-96
2021/09/10 07:43:48;;;;;;;9.30;8.18;;;22.30;64.00;;;;;;5074991;28;20042;-95
2021/09/10 07:46:15;;;;;;;10.75;8.38;;;22.30;64.00;;;;;;5070926;28;20032;-96
2021/09/10 07:48:41;;;;;;;10.23;7.88;;;22.40;64.00;;;;;;5069489;28;20024;-96
2021/09/10 07:51:09;;;;;;;8.63;7.50;;;22.40;63.70;;;;;;5072996;28;20494;-96
2021/09/10 07:53:38;;;;;;;10.15;8.30;;;22.50;63.90;;;;;;5068635;28;20110;-96
2021/09/10 07:56:04;;;;;;;8.90;8.00;;;22.60;63.90;;;;;;5082207;28;20025;-96
2021/09/10 07:58:30;;;;;;;9.98;7.32;;;22.60;63.90;;;;;;5063075;28;20555;-96
2021/09/10 08:00:56;;;;;;;10.40;7.88;;;22.70;63.80;;;;;;5071682;28;20024;-96
2021/09/10 08:03:28;;;;;;;11.02;7.82;;;22.70;63.70;;;;;;5076240;28;20032;-96
2021/09/10 08:05:54;;;;;;;10.07;8.23;;;22.80;63.70;;;;;;5078235;28;20009;-96
2021/09/10 08:08:22;;;;;;;12.13;8.77;;;22.90;63.40;;;;;;5075697;28;20024;-95
2021/09/10 08:10:48;;;;;;;12.80;8.15;;;22.90;63.20;;;;;;5091475;28;20047;-96
2021/09/10 08:18:46;;;;;;;11.20;7.70;;;23.10;62.80;;;;;;4966216;23;20035;-93
2021/09/10 08:21:15;;;;;;;7.93;7.13;;;23.30;62.60;;;;;;4969450;23;20059;-93
2021/09/10 08:23:41;;;;;;;9.40;7.85;;;23.30;62.50;;;;;;4938926;29;20028;-95
2021/09/10 08:26:07;;;;;;;8.70;7.25;;;23.40;62.50;;;;;;4931808;29;20040;-95
2021/09/10 08:28:33;;;;;;;9.02;7.72;;;23.40;62.20;;;;;;4917266;29;20024;-96
2021/09/10 08:30:59;;;;;;;10.52;7.75;;;23.40;62.10;;;;;;4931455;29;20047;-96
2021/09/10 08:33:28;;;;;;;10.68;7.75;;;23.40;62.00;;;;;;4931340;29;20032;-96
2021/09/10 08:35:54;;;;;;;10.73;8.15;;;23.40;61.70;;;;;;4927822;29;20127;-95
2021/09/10 08:38:19;;;;;;;8.65;7.13;;;23.40;61.40;;;;;;4926130;29;20036;-95
2021/09/10 08:40:47;;;;;;;9.63;7.93;;;23.40;61.50;;;;;;4927140;29;20029;-95
2021/09/10 08:43:13;;;;;;;8.88;7.43;;;23.50;61.40;;;;;;4938070;29;20016;-94
2021/09/10 08:45:42;;;;;;;7.80;6.90;;;23.50;61.40;;;;;;5067972;23;20158;-94
2021/09/10 08:48:12;;;;;;;8.27;7.30;;;23.50;61.30;;;;;;4955792;29;20083;-94
2021/09/10 08:50:39;;;;;;;7.25;6.18;;;23.50;61.30;;;;;;4958075;29;20051;-95
2021/09/10 08:53:05;;;;;;;8.60;7.68;;;23.50;61.20;;;;;;4956402;29;20023;-96
2021/09/10 08:55:32;;;;;;;10.20;7.10;;;23.60;61.00;;;;;;4952983;29;20152;-96
2021/09/10 08:58:03;;;;;;;9.55;6.65;;;23.60;60.60;;;;;;4956091;29;20020;-96
2021/09/10 09:03:38;;;;;;;8.75;6.80;;;23.70;59.20;;;;;;5345699;23;20063;-95
2021/09/10 09:06:04;;;;;;;7.32;5.40;;;23.80;59.00;;;;;;5143336;23;20055;-96
2021/09/10 09:08:52;;;;;;;7.03;5.65;;;23.80;58.40;;;;;;5529309;23;20055;-96
2021/09/10 09:11:32;;;;;;;6.63;5.63;;;23.90;58.40;;;;;;4958098;29;20040;-96
2021/09/10 09:14:05;;;;;;;5.93;5.32;;;23.90;57.60;;;;;;4958413;29;20032;-96
2021/09/10 09:16:32;;;;;;;8.50;5.78;;;23.90;57.80;;;;;;4960866;29;20051;-95
2021/09/10 09:19:00;;;;;;;6.43;5.82;;;23.90;57.50;;;;;;4961050;29;20058;-94
2021/09/10 09:21:37;;;;;;;6.20;5.50;;;24.00;57.40;;;;;;4960478;29;20090;-95
2021/09/10 09:24:22;;;;;;;5.88;4.85;;;24.00;57.00;;;;;;4960200;29;20166;-95
2021/09/10 09:26:51;;;;;;;8.60;5.65;;;24.00;56.40;;;;;;4956795;29;20028;-96
2021/09/10 09:29:19;;;;;;;6.95;5.68;;;24.10;57.20;;;;;;4947357;29;20032;-96
2021/09/10 09:31:57;;;;;;;8.75;6.65;;;24.20;56.70;;;;;;4944937;29;20508;-96
2021/09/10 09:34:50;;;;;;;7.78;6.30;;;24.20;55.00;;;;;;4944608;29;20090;-96
2021/09/10 09:37:24;;;;;;;7.57;5.95;;;24.20;55.80;;;;;;4946165;29;20429;-96
2021/09/10 09:39:59;;;;;;;11.70;7.05;;;24.30;54.90;;;;;;4943676;29;20118;-96
2021/09/10 09:42:31;;;;;;;7.07;6.38;;;24.30;53.50;;;;;;4944063;29;20044;-96
2021/09/10 09:45:14;;;;;;;8.40;7.28;;;24.20;54.30;;;;;;4951212;29;20031;-96
2021/09/10 09:47:42;;;;;;;7.13;6.15;;;24.20;53.90;;;;;;4949042;29;20024;-96
2021/09/10 09:50:12;;;;;;;7.88;6.78;;;24.10;54.20;;;;;;4954338;29;20032;-96
2021/09/10 09:52:38;;;;;;;9.40;7.75;;;24.10;54.40;;;;;;4953381;29;20031;-96
2021/09/10 09:55:06;;;;;;;8.10;7.10;;;24.10;53.40;;;;;;4951475;29;20035;-95
2021/09/10 09:57:33;;;;;;;11.65;6.97;;;24.00;53.50;;;;;;4947822;29;20031;-95
2021/09/10 10:00:03;;;;;;;6.80;6.10;;;24.00;53.90;;;;;;4946357;29;20032;-96
2021/09/10 10:02:29;;;;;;;7.80;6.55;;;24.00;53.90;;;;;;4955734;29;20036;-96
2021/09/10 10:04:57;;;;;;;7.18;6.10;;;24.00;53.00;;;;;;4953516;29;20036;-96
2021/09/10 10:07:23;;;;;;;6.80;6.10;;;24.00;53.10;;;;;;4951033;29;20019;-96
2021/09/10 10:09:51;;;;;;;7.25;5.97;;;24.00;53.10;;;;;;4946902;29;20079;-94
2021/09/10 10:12:21;;;;;;;6.65;5.95;;;24.00;53.20;;;;;;4947753;29;20036;-96
2021/09/10 10:14:47;;;;;;;8.30;5.95;;;24.00;53.50;;;;;;4946289;29;20078;-96
2021/09/10 10:17:33;;;;;;;8.60;6.50;;;24.10;53.60;;;;;;4949957;29;20056;-96
2021/09/10 10:19:59;;;;;;;6.78;5.97;;;24.20;53.50;;;;;;4951501;29;20028;-92
2021/09/10 10:22:33;;;;;;;8.63;6.70;;;24.20;53.50;;;;;;4957446;29;20034;-94
2021/09/10 10:24:59;;;;;;;8.25;6.05;;;24.20;53.30;;;;;;4955365;29;20431;-93
2021/09/10 10:27:38;;;;;;;6.32;5.57;;;24.20;53.60;;;;;;4951317;29;20028;-95
2021/09/10 10:30:19;;;;;;;6.60;5.90;;;24.20;53.40;;;;;;4946483;29;20036;-95
2021/09/10 10:32:49;;;;;;;7.25;6.13;;;24.20;52.10;;;;;;4945332;29;20027;-95
2021/09/10 10:35:29;;;;;;;10.25;6.88;;;24.30;53.00;;;;;;4945017;29;20040;-96
2021/09/10 10:38:01;;;;;;;7.63;6.82;;;24.30;52.60;;;;;;4946792;29;20039;-95
2021/09/10 10:40:34;;;;;;;9.07;7.38;;;24.30;52.30;;;;;;4943862;29;20036;-96
2021/09/10 10:43:05;;;;;;;8.10;7.30;;;24.30;52.60;;;;;;4945086;29;20046;-95
2021/09/10 10:45:46;;;;;;;8.93;6.78;;;24.40;53.00;;;;;;4945169;29;20385;-96
2021/09/10 10:48:30;;;;;;;8.63;7.40;;;24.40;52.10;;;;;;4945369;29;20028;-95
2021/09/10 10:51:01;;;;;;;7.22;6.50;;;24.40;50.90;;;;;;4945337;29;20035;-96
2021/09/10 10:53:48;;;;;;;6.78;5.85;;;24.50;51.90;;;;;;4948382;29;20058;-95
2021/09/10 10:56:32;;;;;;;7.75;6.38;;;24.60;51.80;;;;;;4944935;29;20051;-96
2021/09/10 10:59:13;;;;;;;;;;;24.60;51.00;;;;;;4952238;29;20035;-96
2021/09/10 11:02:24;;;;;;;8.43;6.30;;;24.60;48.80;;;;;;4947182;29;19910;-96
2021/09/10 11:04:58;;;;;;;8.73;6.90;;;24.60;50.40;;;;;;4945362;29;20068;-96
2021/09/10 11:07:25;;;;;;;7.35;6.38;;;24.60;50.80;;;;;;4945545;29;20032;-96
2021/09/10 11:10:08;;;;;;;9.55;6.38;;;24.60;50.60;;;;;;4948952;29;20079;-96
2021/09/10 11:12:35;;;;;;;8.13;6.30;;;24.70;50.20;;;;;;4950170;29;20034;-96
2021/09/10 11:15:14;;;;;;;7.03;5.70;;;24.70;50.10;;;;;;4949172;29;20028;-96
2021/09/10 11:17:42;;;;;;;8.63;6.03;;;24.70;50.40;;;;;;4946749;29;20535;-94
2021/09/10 11:20:08;;;;;;;8.13;6.13;;;24.70;50.20;;;;;;4947071;29;20040;-94
2021/09/10 11:22:47;;;;;;;10.52;6.40;;;24.80;49.60;;;;;;4952776;29;20040;-95
2021/09/10 11:25:13;;;;;;;6.55;5.60;;;24.80;48.80;;;;;;4952821;29;20028;-94
2021/09/10 11:27:39;;;;;;;6.68;5.97;;;24.80;49.60;;;;;;4944248;29;20467;-95
2021/09/10 11:30:07;;;;;;;8.90;6.18;;;24.80;49.50;;;;;;4943473;29;20043;-96
2021/09/10 11:32:33;;;;;;;7.05;6.10;;;24.80;49.40;;;;;;4947060;29;20028;-95
2021/09/10 11:35:00;;;;;;;6.55;5.85;;;24.90;49.20;;;;;;4956606;29;20058;-96
2021/09/10 11:37:26;;;;;;;7.53;5.95;;;25.00;49.10;;;;;;4960057;29;20042;-94
2021/09/10 11:39:53;;;;;;;9.60;5.97;;;25.00;49.00;;;;;;4954449;29;20027;-96
2021/09/10 11:42:36;;;;;;;6.95;5.75;;;25.10;48.60;;;;;;4947928;29;20028;-96
2021/09/10 11:45:08;;;;;;;6.80;5.50;;;25.10;47.50;;;;;;4948898;29;20051;-96
2021/09/10 11:47:40;;;;;;;7.30;6.15;;;25.10;47.90;;;;;;4953401;29;20028;-96
2021/09/10 11:50:09;;;;;;;6.63;5.87;;;25.10;48.00;;;;;;4953396;29;20099;-95
2021/09/10 11:52:47;;;;;;;7.63;5.68;;;25.10;49.00;;;;;;4953461;29;20035;-95
2021/09/10 11:55:17;;;;;;;6.85;6.00;;;25.10;47.60;;;;;;4951023;29;20056;-95
2021/09/10 11:57:43;;;;;;;7.07;5.78;;;25.10;47.20;;;;;;4952839;29;20060;-95
2021/09/10 12:00:30;;;;;;;6.28;5.68;;;25.10;47.60;;;;;;4948446;29;20052;-95
2021/09/10 12:03:02;;;;;;;7.25;5.97;;;25.10;47.10;;;;;;4949189;29;20039;-96
2021/09/10 12:05:28;;;;;;;6.20;5.60;;;25.10;47.60;;;;;;4953385;29;20030;-94
2021/09/10 12:07:55;;;;;;;6.40;5.40;;;25.00;47.60;;;;;;4952770;29;20038;-94
2021/09/10 12:10:33;;;;;;;6.63;5.60;;;25.10;47.80;;;;;;4950404;29;20039;-96
2021/09/10 12:13:17;;;;;;;7.30;6.55;;;25.10;47.70;;;;;;4950886;29;20076;-96
2021/09/10 12:15:43;;;;;;;8.80;6.45;;;25.20;47.70;;;;;;4951090;29;20087;-94
2021/09/10 12:18:13;;;;;;;6.43;5.43;;;25.20;47.50;;;;;;4934300;29;20016;-95
2021/09/10 12:20:40;;;;;;;7.88;6.43;;;25.20;47.60;;;;;;4937510;29;20052;-94
2021/09/10 12:23:07;;;;;;;9.20;6.82;;;25.30;47.50;;;;;;4922538;29;20051;-95
2021/09/10 12:25:37;;;;;;;11.60;7.18;;;25.30;47.20;;;;;;4954109;29;20103;-96
2021/09/10 12:28:03;;;;;;;7.63;6.43;;;25.40;47.00;;;;;;4953823;29;20023;-96
2021/09/10 12:30:39;;;;;;;8.43;6.70;;;25.40;47.10;;;;;;4955138;29;20032;-96
2021/09/10 12:33:06;;;;;;;7.35;5.45;;;25.60;46.20;;;;;;4954147;29;20055;-95
2021/09/10 12:35:33;;;;;;;7.93;6.65;;;25.70;47.60;;;;;;4954499;29;20029;-95
2021/09/10 12:38:01;;;;;;;7.93;6.43;;;25.80;46.50;;;;;;4954214;29;20092;-95
2021/09/10 12:40:40;;;;;;;7.63;6.05;;;25.90;46.50;;;;;;4930353;29;20046;-95
2021/09/10 12:43:08;;;;;;;6.43;5.45;;;26.00;46.50;;;;;;4942975;29;20023;-96
2021/09/10 12:45:34;;;;;;;7.05;5.10;;;26.20;46.40;;;;;;4955617;29;20031;-96
2021/09/10 12:48:01;;;;;;;7.55;6.38;;;26.40;46.30;;;;;;4954524;29;20023;-95